createdAt,value
2022-11-08T00:01:48.217Z,100415.19
2022-11-08T00:04:49.656Z,100415.94
2022-11-08T00:08:09.750Z,100413.13
2022-11-08T00:11:29.464Z,100411.47
2022-11-08T00:14:30.863Z,100416.75
2022-11-08T00:17:32.532Z,100416.91
2022-11-08T00:20:34.404Z,100405.50
2022-11-08T00:23:35.803Z,100402.84
2022-11-08T00:26:37.196Z,100403.66
2022-11-08T00:29:38.673Z,100396.88
2022-11-08T00:32:40.054Z,100395.16
2022-11-08T00:35:41.515Z,100401.19
2022-11-08T00:38:44.023Z,100403.78
2022-11-08T00:41:45.770Z,100396.59
2022-11-08T00:44:47.221Z,100394.78
2022-11-08T00:47:48.610Z,100392.13
2022-11-08T00:50:50.052Z,100388.47
2022-11-08T00:53:51.432Z,100391.16
2022-11-08T00:56:52.831Z,100394.66
2022-11-08T00:59:54.239Z,100386.72
2022-11-08T01:03:14.259Z,100382.31
2022-11-08T01:06:18.824Z,100383.19
2022-11-08T01:09:20.279Z,100364.75
2022-11-08T01:12:21.659Z,100370.03
2022-11-08T01:15:23.208Z,100369.22
2022-11-08T01:18:25.058Z,100373.03
2022-11-08T01:21:27.304Z,100373.19
2022-11-08T01:24:28.679Z,100379.59
2022-11-08T01:27:30.075Z,100371.69
2022-11-08T01:30:31.564Z,100370.78
2022-11-08T01:33:33.597Z,100359.53
2022-11-08T01:36:35.021Z,100362.94
2022-11-08T01:39:36.419Z,100357.47
2022-11-08T01:42:37.922Z,100344.44
2022-11-08T01:46:29.592Z,100347.13
2022-11-08T01:49:41.809Z,100341.13
2022-11-08T01:52:47.340Z,100343.75
2022-11-08T01:55:48.928Z,100341.50
2022-11-08T01:58:52.594Z,100331.88
2022-11-08T02:01:54.286Z,100330.00
2022-11-08T02:04:55.944Z,100329.91
2022-11-08T02:08:14.732Z,100321.00
2022-11-08T02:11:18.204Z,100309.81
2022-11-08T02:14:19.778Z,100306.19
2022-11-08T02:17:21.160Z,100303.63
2022-11-08T02:20:22.800Z,100302.84
2022-11-08T02:23:30.286Z,100296.66
2022-11-08T02:26:33.614Z,100300.13
2022-11-08T02:29:36.281Z,100291.53
2022-11-08T02:32:39.340Z,100294.03
2022-11-08T02:35:41.323Z,100286.13
2022-11-08T02:38:47.975Z,100276.50
2022-11-08T02:41:49.387Z,100282.66
2022-11-08T02:44:51.235Z,100290.66
2022-11-08T02:47:52.627Z,100287.16
2022-11-08T02:50:54.058Z,100293.44
2022-11-08T02:53:55.482Z,100290.75
2022-11-08T02:56:56.857Z,100275.06
2022-11-08T02:59:58.239Z,100280.34
2022-11-08T03:02:59.856Z,100278.56
2022-11-08T03:06:01.260Z,100268.06
2022-11-08T03:09:03.385Z,100271.72
2022-11-08T03:12:04.936Z,100269.16
2022-11-08T03:15:08.182Z,100269.84
2022-11-08T03:18:09.600Z,100266.47
2022-11-08T03:21:11.025Z,100268.06
2022-11-08T03:24:12.632Z,100272.34
2022-11-08T03:27:15.201Z,100268.16
2022-11-08T03:30:16.705Z,100276.06
2022-11-08T03:33:18.141Z,100259.34
2022-11-08T03:36:19.617Z,100261.94
2022-11-08T03:39:21.025Z,100263.06
2022-11-08T03:42:22.459Z,100264.81
2022-11-08T03:45:23.909Z,100261.41
2022-11-08T03:48:25.423Z,100250.91
2022-11-08T03:51:26.959Z,100250.97
2022-11-08T03:54:28.359Z,100247.53
2022-11-08T03:57:29.771Z,100253.84
2022-11-08T04:00:31.172Z,100249.66
2022-11-08T04:03:32.657Z,100236.44
2022-11-08T04:06:34.376Z,100237.31
2022-11-08T04:09:35.757Z,100237.22
2022-11-08T04:13:00.085Z,100231.88
2022-11-08T04:16:01.508Z,100227.41
2022-11-08T04:19:21.735Z,100223.25
2022-11-08T04:22:23.343Z,100223.16
2022-11-08T04:25:24.760Z,100229.13
2022-11-08T04:28:27.948Z,100229.91
2022-11-08T04:31:29.440Z,100234.41
2022-11-08T04:34:30.821Z,100236.34
2022-11-08T04:37:32.211Z,100232.16
2022-11-08T04:40:33.611Z,100238.38
2022-11-08T04:43:35.058Z,100229.56
2022-11-08T04:46:36.476Z,100235.53
2022-11-08T04:49:37.897Z,100226.06
2022-11-08T04:52:40.988Z,100226.25
2022-11-08T04:55:42.367Z,100228.19
2022-11-08T04:58:46.313Z,100231.94
2022-11-08T05:01:47.895Z,100236.38
2022-11-08T05:04:49.405Z,100234.66
2022-11-08T05:07:50.888Z,100231.28
2022-11-08T05:10:52.309Z,100234.25
2022-11-08T05:13:54.080Z,100229.19
2022-11-08T05:16:55.571Z,100217.91
2022-11-08T05:20:15.314Z,100222.41
2022-11-08T05:23:25.469Z,100213.75
2022-11-08T05:26:28.241Z,100213.72
2022-11-08T05:29:29.660Z,100209.53
2022-11-08T05:32:31.068Z,100206.22
2022-11-08T05:35:36.174Z,100210.78
2022-11-08T05:38:38.364Z,100208.94
2022-11-08T05:41:39.761Z,100198.53
2022-11-08T05:44:41.160Z,100202.22
2022-11-08T05:47:45.888Z,100200.50
2022-11-08T05:50:48.372Z,100197.22
2022-11-08T05:53:49.828Z,100189.28
2022-11-08T05:56:51.239Z,100197.13
2022-11-08T05:59:52.669Z,100193.69
2022-11-08T06:02:54.160Z,100181.44
2022-11-08T06:05:55.955Z,100180.59
2022-11-08T06:08:57.376Z,100179.84
2022-11-08T06:11:58.776Z,100185.28
2022-11-08T06:15:00.392Z,100174.75
2022-11-08T06:18:03.729Z,100172.81
2022-11-08T06:21:07.482Z,100174.75
2022-11-08T06:24:08.880Z,100172.94
2022-11-08T06:27:10.269Z,100174.59
2022-11-08T06:30:12.249Z,100179.44
2022-11-08T06:33:13.871Z,100190.81
2022-11-08T06:36:15.267Z,100189.03
2022-11-08T06:39:16.865Z,100199.59
2022-11-08T06:42:18.401Z,100195.19
2022-11-08T06:45:20.450Z,100195.19
2022-11-08T06:48:21.896Z,100193.16
2022-11-08T06:51:23.441Z,100205.31
2022-11-08T06:54:26.843Z,100203.44
2022-11-08T06:57:28.641Z,100206.72
2022-11-08T07:00:30.578Z,100207.44
2022-11-08T07:03:33.253Z,100203.78
2022-11-08T07:06:35.787Z,100192.16
2022-11-08T07:09:37.276Z,100194.59
2022-11-08T07:12:38.712Z,100198.06
2022-11-08T07:15:41.112Z,100195.16
2022-11-08T07:18:42.650Z,100201.06
2022-11-08T07:21:44.084Z,100201.84
2022-11-08T07:24:45.455Z,100198.91
2022-11-08T07:27:46.870Z,100199.75
2022-11-08T07:30:48.891Z,100201.06
2022-11-08T07:33:50.791Z,100202.56
2022-11-08T07:36:52.176Z,100201.50
2022-11-08T07:39:53.696Z,100193.38
2022-11-08T07:43:22.791Z,100186.16
2022-11-08T07:46:22.564Z,100193.09
2022-11-08T07:49:23.962Z,100202.69
2022-11-08T07:52:25.481Z,100205.44
2022-11-08T07:55:27.424Z,100189.47
2022-11-08T07:58:28.811Z,100193.16
2022-11-08T08:01:30.339Z,100196.59
2022-11-08T08:04:32.070Z,100187.97
2022-11-08T08:07:35.621Z,100194.13
2022-11-08T08:10:37.353Z,100192.66
2022-11-08T08:13:38.777Z,100189.94
2022-11-08T08:16:40.486Z,100193.38
2022-11-08T08:19:41.875Z,100194.25
2022-11-08T08:22:47.665Z,100190.69
2022-11-08T08:25:49.106Z,100187.88
2022-11-08T08:28:50.575Z,100188.69
2022-11-08T08:31:52.070Z,100192.16
2022-11-08T08:34:53.447Z,100200.78
2022-11-08T08:37:58.533Z,100207.59
2022-11-08T08:41:01.022Z,100218.69
2022-11-08T08:44:02.490Z,100219.28
2022-11-08T08:47:03.890Z,100220.81
2022-11-08T08:50:05.774Z,100222.41
2022-11-08T08:53:07.347Z,100233.81
2022-11-08T08:56:09.092Z,100234.56
2022-11-08T09:02:32.000Z,100249.59
2022-11-08T09:05:34.697Z,100244.91
2022-11-08T09:08:36.313Z,100242.19
2022-11-08T09:11:37.697Z,100253.28
2022-11-08T09:14:39.101Z,100258.28
2022-11-08T09:17:40.477Z,100262.41
2022-11-08T09:20:43.739Z,100257.00
2022-11-08T09:23:45.163Z,100257.00
2022-11-08T09:26:46.689Z,100259.16
2022-11-08T09:29:48.205Z,100253.84
2022-11-08T09:33:02.175Z,100258.88
2022-11-08T09:36:05.510Z,100254.53
2022-11-08T09:39:06.925Z,100258.97
2022-11-08T09:42:27.183Z,100257.75
2022-11-08T09:45:37.598Z,100255.06
2022-11-08T09:48:42.630Z,100252.44
2022-11-08T09:51:44.283Z,100247.75
2022-11-08T09:54:47.331Z,100241.69
2022-11-08T09:58:01.257Z,100248.84
2022-11-08T10:01:03.727Z,100238.38
2022-11-08T10:04:08.814Z,100233.56
2022-11-08T10:07:32.117Z,100234.00
2022-11-08T10:10:57.100Z,100249.44
2022-11-08T10:14:18.004Z,100241.78
2022-11-08T10:17:47.358Z,100250.00
2022-11-08T10:20:59.496Z,100243.22
2022-11-08T10:24:14.578Z,100239.47
2022-11-08T10:27:33.606Z,100238.03
2022-11-08T10:30:41.273Z,100242.69
2022-11-08T10:33:47.327Z,100235.06
2022-11-08T10:36:54.559Z,100230.47
2022-11-08T10:40:12.135Z,100220.09
2022-11-08T10:43:24.722Z,100218.78
2022-11-08T10:46:36.957Z,100218.53
2022-11-08T10:49:47.464Z,100221.31
2022-11-08T10:52:58.031Z,100216.19
2022-11-08T10:56:01.659Z,100215.44
2022-11-08T10:59:03.105Z,100203.25
2022-11-08T11:02:19.006Z,100204.25
2022-11-08T11:05:28.692Z,100199.00
2022-11-08T11:08:30.860Z,100198.75
2022-11-08T11:11:32.177Z,100191.81
2022-11-08T11:14:33.576Z,100190.75
2022-11-08T11:17:38.841Z,100187.69
2022-11-08T11:20:41.731Z,100192.72
2022-11-08T11:23:56.067Z,100185.25
2022-11-08T11:26:57.365Z,100185.06
2022-11-08T11:30:25.543Z,100177.56
2022-11-08T11:33:29.896Z,100178.63
2022-11-08T11:36:31.674Z,100176.88
2022-11-08T11:39:44.174Z,100169.81
2022-11-08T11:42:56.614Z,100169.69
2022-11-08T11:46:15.213Z,100174.91
2022-11-08T11:49:21.537Z,100155.38
2022-11-08T11:52:23.020Z,100155.47
2022-11-08T11:55:47.788Z,100152.34
2022-11-08T11:59:04.341Z,100155.59
2022-11-08T12:02:09.228Z,100147.25
2022-11-08T12:05:29.888Z,100141.63
2022-11-08T12:08:43.301Z,100140.38
2022-11-08T12:12:06.739Z,100137.31
2022-11-08T12:15:14.120Z,100129.63
2022-11-08T12:19:00.720Z,100137.16
2022-11-08T12:22:20.494Z,100128.06
2022-11-08T12:25:33.838Z,100131.50
2022-11-08T12:29:03.085Z,100129.97
2022-11-08T12:32:20.915Z,100124.53
2022-11-08T12:36:07.613Z,100124.53
2022-11-08T12:39:23.535Z,100124.06
2022-11-08T12:42:43.538Z,100117.69
2022-11-08T12:46:12.895Z,100119.09
2022-11-08T12:49:26.585Z,100114.75
2022-11-08T12:52:46.780Z,100114.44
2022-11-08T12:55:49.730Z,100102.50
2022-11-08T12:58:53.511Z,100094.50
2022-11-08T13:01:56.719Z,100093.38
2022-11-08T13:05:19.963Z,100092.72
2022-11-08T13:08:46.562Z,100093.66
2022-11-08T13:12:00.341Z,100089.09
2022-11-08T13:15:03.329Z,100084.31
2022-11-08T13:18:07.577Z,100087.75
2022-11-08T13:21:27.812Z,100081.09
2022-11-08T13:24:48.794Z,100074.06
2022-11-08T13:27:50.256Z,100069.88
2022-11-08T13:31:08.235Z,100075.78
2022-11-08T13:34:21.813Z,100075.97
2022-11-08T13:37:45.049Z,100080.66
2022-11-08T13:41:16.846Z,100079.66
2022-11-08T13:44:54.925Z,100073.97
2022-11-08T13:48:22.461Z,100076.63
2022-11-08T13:51:27.266Z,100081.25
2022-11-08T13:54:31.030Z,100077.88
2022-11-08T13:57:57.432Z,100079.38
2022-11-08T14:01:00.010Z,100085.47
2022-11-08T14:04:01.532Z,100075.41
2022-11-08T14:07:27.346Z,100078.34
2022-11-08T14:11:21.818Z,100069.88
2022-11-08T14:14:38.311Z,100067.72
2022-11-08T14:17:49.743Z,100060.19
2022-11-08T14:20:52.422Z,100066.88
2022-11-08T14:23:54.211Z,100059.81
2022-11-08T14:26:55.832Z,100057.75
2022-11-08T14:30:01.161Z,100051.09
2022-11-08T14:33:23.236Z,100054.50
2022-11-08T14:36:27.701Z,100052.03
2022-11-08T14:39:34.394Z,100044.72
2022-11-08T14:42:35.920Z,100042.38
2022-11-08T14:45:38.945Z,100049.09
2022-11-08T14:48:50.076Z,100049.66
2022-11-08T14:52:15.500Z,100054.28
2022-11-08T14:55:23.717Z,100047.44
2022-11-08T14:58:27.558Z,100050.00
2022-11-08T15:01:29.630Z,100048.31
2022-11-08T15:04:32.731Z,100038.53
2022-11-08T15:07:34.182Z,100042.31
2022-11-08T15:10:35.750Z,100037.38
2022-11-08T15:13:43.424Z,100030.84
2022-11-08T15:16:51.175Z,100032.19
2022-11-08T15:20:03.571Z,100033.97
2022-11-08T15:23:47.876Z,100026.28
2022-11-08T15:27:12.033Z,100028.22
2022-11-08T15:30:17.137Z,100027.53
2022-11-08T15:33:34.541Z,100033.03
2022-11-08T15:36:36.929Z,100025.50
2022-11-08T15:39:39.905Z,100025.69
2022-11-08T15:42:45.024Z,100027.22
2022-11-08T15:45:52.772Z,100023.97
2022-11-08T15:48:59.202Z,100028.56
2022-11-08T15:52:00.789Z,100029.63
2022-11-08T15:55:02.181Z,100023.66
2022-11-08T15:58:04.623Z,100025.28
2022-11-08T16:01:06.647Z,100023.31
2022-11-08T16:04:12.835Z,100016.81
2022-11-08T16:07:14.305Z,100013.81
2022-11-08T16:10:18.350Z,100014.13
2022-11-08T16:13:26.982Z,100020.56
2022-11-08T16:16:32.658Z,100015.56
2022-11-08T16:19:36.456Z,100019.41
2022-11-08T16:22:37.918Z,100014.47
2022-11-08T16:25:46.225Z,100007.91
2022-11-08T16:28:47.685Z,100002.97
2022-11-08T16:31:51.013Z,99998.34
2022-11-08T16:34:52.412Z,100002.63
2022-11-08T16:37:54.155Z,99991.03
2022-11-08T16:40:56.048Z,99999.19
2022-11-08T16:43:58.101Z,99992.84
2022-11-08T16:46:59.589Z,99992.59
2022-11-08T16:50:01.190Z,99997.31
2022-11-08T16:53:02.604Z,100009.97
2022-11-08T16:56:04.067Z,100007.75
2022-11-08T16:59:05.447Z,100013.06
2022-11-08T17:02:20.646Z,100014.06
2022-11-08T17:05:24.391Z,100011.59
2022-11-08T17:08:26.327Z,100017.66
2022-11-08T17:11:27.742Z,100015.72
2022-11-08T17:14:29.127Z,100017.66
2022-11-08T17:17:30.524Z,100024.97
2022-11-08T17:20:32.097Z,100024.22
2022-11-08T17:23:33.544Z,100023.38
2022-11-08T17:26:34.977Z,100022.75
2022-11-08T17:29:36.407Z,100025.50
2022-11-08T17:32:38.334Z,100027.34
2022-11-08T17:35:43.875Z,100029.06
2022-11-08T17:38:45.921Z,100022.84
2022-11-08T17:41:47.365Z,100019.16
2022-11-08T17:44:49.550Z,100025.31
2022-11-08T17:47:50.944Z,100035.31
2022-11-08T17:50:52.702Z,100033.16
2022-11-08T17:53:54.096Z,100042.72
2022-11-08T17:56:55.543Z,100039.59
2022-11-08T17:59:57.109Z,100049.22
2022-11-08T18:02:58.981Z,100039.97
2022-11-08T18:06:11.263Z,100039.31
2022-11-08T18:09:12.831Z,100036.19
2022-11-08T18:12:14.338Z,100037.19
2022-11-08T18:15:15.743Z,100033.78
2022-11-08T18:18:17.862Z,100036.34
2022-11-08T18:21:19.931Z,100045.72
2022-11-08T18:24:21.371Z,100039.66
2022-11-08T18:27:22.826Z,100042.31
2022-11-08T18:30:24.332Z,100021.72
2022-11-08T18:33:25.854Z,100028.88
2022-11-08T18:36:29.484Z,100028.56
2022-11-08T18:39:30.916Z,100024.06
2022-11-08T18:42:32.790Z,100042.59
2022-11-08T18:45:34.201Z,100026.91
2022-11-08T18:48:35.825Z,100034.88
2022-11-08T18:51:37.263Z,100027.78
2022-11-08T18:54:38.662Z,100028.63
2022-11-08T18:57:40.913Z,100035.41
2022-11-08T19:00:42.808Z,100026.09
2022-11-08T19:03:44.265Z,100026.22
2022-11-08T19:06:50.068Z,100014.72
2022-11-08T19:09:54.598Z,100011.53
2022-11-08T19:12:55.984Z,100013.16
2022-11-08T19:16:10.010Z,100028.97
2022-11-08T19:19:11.885Z,100031.53
2022-11-08T19:22:13.263Z,100023.59
2022-11-08T19:25:14.739Z,100018.53
2022-11-08T19:28:16.221Z,100020.16
2022-11-08T19:31:19.553Z,100025.22
2022-11-08T19:34:20.959Z,100022.72
2022-11-08T19:37:22.365Z,100029.66
2022-11-08T19:40:26.758Z,100033.06
2022-11-08T19:43:40.197Z,100040.28
2022-11-08T19:46:41.701Z,100042.06
2022-11-08T19:49:43.187Z,100037.63
2022-11-08T19:52:44.581Z,100046.19
2022-11-08T19:55:46.043Z,100040.88
2022-11-08T19:58:47.516Z,100045.25
2022-11-08T20:01:49.112Z,100035.50
2022-11-08T20:04:50.685Z,100035.28
2022-11-08T20:07:52.266Z,100038.09
2022-11-08T20:10:53.752Z,100030.13
2022-11-08T20:13:56.093Z,100042.75
2022-11-08T20:16:57.511Z,100038.25
2022-11-08T20:19:58.909Z,100046.19
2022-11-08T20:23:00.439Z,100042.63
2022-11-08T20:26:04.258Z,100044.47
2022-11-08T20:29:09.555Z,100056.00
2022-11-08T20:32:11.460Z,100051.31
2022-11-08T20:35:19.234Z,100053.13
2022-11-08T20:38:24.772Z,100059.75
2022-11-08T20:41:26.200Z,100055.56
2022-11-08T20:44:27.593Z,100061.22
2022-11-08T20:47:29.978Z,100060.06
2022-11-08T20:50:31.367Z,100056.94
2022-11-08T20:53:34.944Z,100068.00
2022-11-08T20:56:36.616Z,100063.59
2022-11-08T20:59:38.040Z,100066.47
2022-11-08T21:02:39.450Z,100061.00
2022-11-08T21:05:40.917Z,100067.47
2022-11-08T21:12:04.059Z,100067.63
2022-11-08T21:15:05.912Z,100070.34
2022-11-08T21:18:07.955Z,100070.91
2022-11-08T21:21:15.176Z,100086.06
2022-11-08T21:24:17.109Z,100100.41
2022-11-08T21:27:18.672Z,100112.41
2022-11-08T21:30:20.173Z,100117.84
2022-11-08T21:33:22.483Z,100132.13
2022-11-08T21:36:26.631Z,100125.50
2022-11-08T21:39:28.125Z,100132.66
2022-11-08T21:42:29.586Z,100127.50
2022-11-08T21:45:31.093Z,100130.91
2022-11-08T21:48:32.485Z,100117.22
2022-11-08T21:51:33.892Z,100117.41
2022-11-08T21:54:35.397Z,100109.66
2022-11-08T21:57:36.861Z,100098.44
2022-11-08T22:00:38.281Z,100089.56
2022-11-08T22:03:39.754Z,100084.34
2022-11-08T22:06:45.023Z,100102.28
2022-11-08T22:09:48.932Z,100091.72
2022-11-08T22:12:50.314Z,100090.84
2022-11-08T22:15:51.719Z,100099.66
2022-11-08T22:19:09.012Z,100098.50
2022-11-08T22:22:11.188Z,100092.22
2022-11-08T22:25:12.577Z,100086.91
2022-11-08T22:28:13.957Z,100093.69
2022-11-08T22:31:15.412Z,100100.56
2022-11-08T22:34:16.831Z,100099.38
2022-11-08T22:37:18.229Z,100091.31
2022-11-08T22:40:19.734Z,100066.44
2022-11-08T22:43:21.122Z,100070.25
2022-11-08T22:46:22.624Z,100068.59
2022-11-08T22:49:24.002Z,100065.94
2022-11-08T22:52:25.392Z,100068.72
2022-11-08T22:55:26.962Z,100061.16
2022-11-08T22:58:29.511Z,100060.16
2022-11-08T23:01:30.933Z,100058.22
2022-11-08T23:04:32.322Z,100056.44
2022-11-08T23:07:33.783Z,100049.28
2022-11-08T23:10:58.094Z,100044.00
2022-11-08T23:14:18.209Z,100050.41
2022-11-08T23:17:19.588Z,100038.19
2022-11-08T23:20:39.520Z,100040.69
2022-11-08T23:23:59.364Z,100038.91
2022-11-08T23:27:20.895Z,100036.34
2022-11-08T23:30:41.624Z,100026.69
2022-11-08T23:33:44.006Z,100038.91
2022-11-08T23:36:45.397Z,100036.25
2022-11-08T23:40:05.383Z,100042.34
2022-11-08T23:43:36.439Z,100053.63
2022-11-08T23:46:37.865Z,100042.34
2022-11-08T23:49:39.243Z,100053.22
2022-11-08T23:52:40.640Z,100062.16
2022-11-08T23:55:42.067Z,100060.53
2022-11-08T23:58:43.458Z,100068.59
